Time;durP1;ratioP1;P1;durP2;ratioP2;P2;SDS_P1;SDS_P2;PMS_P1;PMS_P2;Temp;Humidity;BMP_temperature;BMP_pressure;BME280_temperature;BME280_humidity;BME280_pressure;Samples;Min_cycle;Max_cycle;Signal;HPM_P1;HPM_P2
2022/11/28 00:01:26;;;;;;;;;;;;;;;5.17;100.00;101135.09;6156615;23;19912;-85
2022/11/28 00:03:52;;;;;;;;;;;;;;;5.31;100.00;101126.19;6172111;23;19932;-83
2022/11/28 00:06:18;;;;;;;;;;;;;;;5.44;100.00;101127.78;6180289;23;19900;-84
2022/11/28 00:08:43;;;;;;;;;;;;;;;5.43;100.00;101131.38;6154960;23;19918;-86
2022/11/28 00:11:11;;;;;;;;;;;;;;;5.58;100.00;101135.50;6176518;23;19920;-83
2022/11/28 00:13:37;;;;;;;;;;;;;;;5.49;100.00;101128.28;6180163;23;19903;-82
2022/11/28 00:16:03;;;;;;;;;;;;;;;5.52;100.00;101122.81;6179450;23;19916;-82
2022/11/28 00:18:29;;;;;;;;;;;;;;;5.65;100.00;101120.94;6177658;23;19927;-83
2022/11/28 00:21:02;;;;;;;;;;;;;;;5.65;100.00;101120.09;6173018;23;19952;-85
2022/11/28 00:23:29;;;;;;;;;;;;;;;5.61;100.00;101114.22;6158913;23;19913;-83
2022/11/28 00:26:04;;;;;;;;;;;;;;;5.62;100.00;101115.06;6161288;23;19954;-83
2022/11/28 00:28:29;;;;;;;;;;;;;;;5.73;100.00;101108.03;6134031;23;19912;-81
2022/11/28 00:30:55;;;;;;;;;;;;;;;5.90;100.00;101108.59;6133807;23;20328;-82
2022/11/28 00:33:20;;;;;;;;;;;;;;;5.95;100.00;101111.69;6133383;23;19916;-83
2022/11/28 00:35:46;;;;;;;;;;;;;;;5.86;100.00;101101.88;6133745;23;19912;-82
2022/11/28 00:38:11;;;;;;;;;;;;;;;5.65;100.00;101099.91;6159811;23;19908;-84
2022/11/28 00:40:36;;;;;;;;;;;;;;;5.55;100.00;101092.81;6157882;23;20355;-83
2022/11/28 00:43:02;;;;;;;;;;;;;;;5.76;100.00;101090.34;6160134;23;19913;-82
2022/11/28 00:45:27;;;;;;;;;;;;;;;5.57;100.00;101097.00;6158970;23;20339;-83
2022/11/28 00:47:53;;;;;;;;;;;;;;;5.37;100.00;101089.78;6133628;23;19916;-82
2022/11/28 00:50:19;;;;;;;;;;;;;;;5.12;100.00;101084.69;6159134;23;19967;-83
2022/11/28 00:52:44;;;;;;;;;;;;;;;5.20;100.00;101074.44;6157467;23;19909;-83
2022/11/28 00:55:10;;;;;;;;;;;;;;;5.42;100.00;101076.28;6159268;23;19913;-84
2022/11/28 00:57:35;;;;;;;;;;;;;;;5.54;100.00;101070.09;6159772;23;19920;-82
2022/11/28 01:00:00;;;;;;;;;;;;;;;5.49;100.00;101064.38;6159587;23;19912;-82
2022/11/28 01:02:26;;;;;;;;;;;;;;;5.46;100.00;101065.44;6156931;23;19919;-83
2022/11/28 01:04:52;;;;;;;;;;;;;;;5.43;100.00;101056.94;6158571;23;19951;-83
2022/11/28 01:07:17;;;;;;;;;;;;;;;5.26;100.00;101058.22;6158668;23;19998;-81
2022/11/28 01:09:43;;;;;;;;;;;;;;;5.35;100.00;101056.69;6157648;23;20002;-84
2022/11/28 01:12:08;;;;;;;;;;;;;;;5.53;100.00;101058.78;6157577;23;20350;-83
2022/11/28 01:14:34;;;;;;;;;;;;;;;5.37;100.00;101055.59;6157549;23;19912;-83
2022/11/28 01:16:59;;;;;;;;;;;;;;;5.28;100.00;101060.72;6157329;23;19938;-83
2022/11/28 01:19:24;;;;;;;;;;;;;;;5.47;100.00;101064.47;6155770;23;19920;-83
2022/11/28 01:21:50;;;;;;;;;;;;;;;5.60;100.00;101057.31;6156905;23;19923;-81
2022/11/28 01:24:15;;;;;;;;;;;;;;;5.68;100.00;101062.84;6157179;23;19991;-82
2022/11/28 01:26:41;;;;;;;;;;;;;;;5.43;100.00;101065.69;6157371;23;20082;-83
2022/11/28 01:29:07;;;;;;;;;;;;;;;5.37;100.00;101068.75;6156843;23;19919;-82
2022/11/28 01:31:32;;;;;;;;;;;;;;;5.29;100.00;101057.97;6157242;23;19987;-83
2022/11/28 01:33:58;;;;;;;;;;;;;;;5.42;100.00;101061.38;6157570;23;19909;-82
2022/11/28 01:36:24;;;;;;;;;;;;;;;5.67;100.00;101062.94;6180702;23;19912;-82
2022/11/28 01:38:49;;;;;;;;;;;;;;;5.71;100.00;101062.59;6157457;23;19916;-83
2022/11/28 01:41:16;;;;;;;;;;;;;;;5.52;100.00;101051.81;6132274;23;19959;-84
2022/11/28 01:44:16;;;;;;;;;;;;;;;5.68;100.00;101052.31;6158362;23;19913;-82
2022/11/28 01:46:45;;;;;;;;;;;;;;;5.78;100.00;101049.81;6039399;23;19914;-83
2022/11/28 01:49:15;;;;;;;;;;;;;;;5.79;100.00;101055.91;6138377;23;20238;-83
2022/11/28 01:51:45;;;;;;;;;;;;;;;5.56;100.00;101053.28;6172849;23;19919;-81
2022/11/28 01:54:11;;;;;;;;;;;;;;;5.46;100.00;101047.03;6154547;23;19900;-81
2022/11/28 01:56:45;;;;;;;;;;;;;;;5.71;100.00;101049.47;6176013;23;20002;-82
2022/11/28 01:59:13;;;;;;;;;;;;;;;5.59;100.00;101045.16;6171956;23;20220;-81
2022/11/28 02:01:40;;;;;;;;;;;;;;;5.41;100.00;101037.81;6172359;23;19912;-80
2022/11/28 02:04:05;;;;;;;;;;;;;;;5.54;100.00;101041.19;6159889;23;19936;-83
2022/11/28 02:06:31;;;;;;;;;;;;;;;5.64;100.00;101040.38;6157585;23;19999;-82
2022/11/28 02:08:56;;;;;;;;;;;;;;;5.55;100.00;101030.56;6158688;23;20403;-80
2022/11/28 02:11:39;;;;;;;;;;;;;;;5.63;100.00;101033.41;6131282;23;19916;-83
2022/11/28 02:14:17;;;;;;;;;;;;;;;5.85;100.00;101031.78;6157335;23;19918;-82
2022/11/28 02:16:50;;;;;;;;;;;;;;;5.76;100.00;101032.50;6157719;23;19949;-82
2022/11/28 02:19:34;;;;;;;;;;;;;;;5.70;100.00;101018.84;6157374;23;19995;-83
2022/11/28 02:22:02;;;;;;;;;;;;;;;5.47;100.00;101022.41;6155574;23;19912;-82
2022/11/28 02:24:46;;;;;;;;;;;;;;;5.20;100.00;101022.72;6156883;23;19916;-84
2022/11/28 02:27:30;;;;;;;;;;;;;;;5.14;100.00;101010.03;6180844;23;19913;-84
2022/11/28 02:29:56;;;;;;;;;;;;;;;5.27;100.00;101015.19;6157335;23;19916;-82
2022/11/28 02:32:40;;;;;;;;;;;;;;;5.17;100.00;101009.00;6157389;23;19913;-80
2022/11/28 02:35:05;;;;;;;;;;;;;;;5.21;100.00;101005.16;6159301;23;19913;-81
2022/11/28 02:37:37;;;;;;;;;;;;;;;5.18;100.00;101002.75;6159749;23;19998;-84
2022/11/28 02:40:24;;;;;;;;;;;;;;;5.21;100.00;100994.66;6161257;23;19913;-81
2022/11/28 02:43:08;;;;;;;;;;;;;;;5.22;100.00;100996.31;6169931;23;19913;-82
2022/11/28 02:45:33;;;;;;;;;;;;;;;5.14;100.00;100993.44;6170294;23;19928;-81
2022/11/28 02:48:22;;;;;;;;;;;;;;;5.28;100.00;100992.38;6168394;23;19928;-81
2022/11/28 02:50:51;;;;;;;;;;;;;;;5.37;100.00;100995.16;6142586;23;20244;-85
2022/11/28 02:53:20;;;;;;;;;;;;;;;5.46;100.00;100988.38;6156798;23;19913;-84
2022/11/28 02:55:45;;;;;;;;;;;;;;;5.67;100.00;100986.69;6158358;23;19917;-84
2022/11/28 02:58:11;;;;;;;;;;;;;;;5.61;100.00;100980.13;6158065;23;19912;-81
2022/11/28 03:00:38;;;;;;;;;;;;;;;5.55;100.00;100977.13;6157473;23;20247;-83
2022/11/28 03:03:09;;;;;;;;;;;;;;;5.33;100.00;100972.72;6157630;23;19991;-82
2022/11/28 03:05:53;;;;;;;;;;;;;;;5.60;100.00;100981.06;6158361;23;20019;-81
2022/11/28 03:08:19;;;;;;;;;;;;;;;5.69;100.00;100977.75;6158755;23;19916;-83
2022/11/28 03:10:44;;;;;;;;;;;;;;;5.46;100.00;100968.19;6159930;23;19996;-84
2022/11/28 03:13:17;;;;;;;;;;;;;;;5.45;100.00;100976.16;6158237;23;19912;-81
2022/11/28 03:16:07;;;;;;;;;;;;;;;5.35;100.00;100969.94;6133064;23;19912;-83
2022/11/28 03:18:41;;;;;;;;;;;;;;;5.25;100.00;100964.56;6157521;23;19917;-83
2022/11/28 03:21:06;;;;;;;;;;;;;;;5.17;100.00;100962.50;6158882;23;19920;-82
2022/11/28 03:23:31;;;;;;;;;;;;;;;5.04;100.00;100960.94;6158982;23;19908;-83
2022/11/28 03:26:06;;;;;;;;;;;;;;;5.05;100.00;100963.44;6159156;23;20050;-83
2022/11/28 03:28:41;;;;;;;;;;;;;;;5.08;100.00;100962.38;6133800;23;19916;-82
2022/11/28 03:31:19;;;;;;;;;;;;;;;5.05;100.00;100959.97;6159944;23;19924;-84
2022/11/28 03:33:48;;;;;;;;;;;;;;;4.92;100.00;100962.72;6158638;23;19916;-83
2022/11/28 03:36:17;;;;;;;;;;;;;;;5.02;100.00;100962.84;6157390;23;20217;-83
2022/11/28 03:38:44;;;;;;;;;;;;;;;5.36;100.00;100966.38;6158772;23;19912;-83
2022/11/28 03:41:15;;;;;;;;;;;;;;;5.46;100.00;100957.66;6158055;23;19919;-83
2022/11/28 03:43:43;;;;;;;;;;;;;;;5.59;100.00;100958.38;6158025;23;20343;-81
2022/11/28 03:46:12;;;;;;;;;;;;;;;5.28;100.00;100966.94;6158357;23;20333;-84
2022/11/28 03:48:39;;;;;;;;;;;;;;;5.17;100.00;100966.97;6131818;23;19916;-83
2022/11/28 03:51:14;;;;;;;;;;;;;;;4.92;100.00;100956.59;6157821;23;19916;-82
2022/11/28 03:53:47;;;;;;;;;;;;;;;4.88;100.00;100949.91;6158073;23;19912;-82
2022/11/28 03:56:20;;;;;;;;;;;;;;;4.96;100.00;100952.81;6157995;23;20394;-81
2022/11/28 03:58:57;;;;;;;;;;;;;;;5.07;100.00;100944.97;6158095;23;19943;-82
2022/11/28 04:01:25;;;;;;;;;;;;;;;4.99;100.00;100937.66;6157973;23;19912;-81
2022/11/28 04:03:58;;;;;;;;;;;;;;;4.90;100.00;100940.16;6158001;23;19908;-80
2022/11/28 04:06:26;;;;;;;;;;;;;;;5.22;100.00;100938.53;6158303;23;19912;-80
2022/11/28 04:08:59;;;;;;;;;;;;;;;5.37;100.00;100944.41;6131783;23;19987;-83
2022/11/28 04:11:28;;;;;;;;;;;;;;;5.19;100.00;100942.22;6157062;23;19984;-81
2022/11/28 04:13:59;;;;;;;;;;;;;;;5.32;100.00;100944.75;6157862;23;19912;-81
2022/11/28 04:16:31;;;;;;;;;;;;;;;5.31;100.00;100937.81;6155986;23;20016;-83
2022/11/28 04:19:08;;;;;;;;;;;;;;;5.24;100.00;100931.34;6157724;23;19923;-82
2022/11/28 04:21:48;;;;;;;;;;;;;;;5.47;100.00;100933.03;6158281;23;20304;-82
2022/11/28 04:24:17;;;;;;;;;;;;;;;5.22;100.00;100923.59;6155608;23;19919;-81
2022/11/28 04:26:46;;;;;;;;;;;;;;;5.39;100.00;100932.81;6180546;23;20272;-80
2022/11/28 04:29:13;;;;;;;;;;;;;;;5.40;100.00;100941.53;6157931;23;20320;-83
2022/11/28 04:31:40;;;;;;;;;;;;;;;5.45;100.00;100934.97;6158159;23;20368;-82
2022/11/28 04:34:07;;;;;;;;;;;;;;;5.63;100.00;100936.13;6156331;23;19912;-81
2022/11/28 04:36:35;;;;;;;;;;;;;;;5.68;100.00;100934.00;6157715;23;19908;-81
2022/11/28 04:39:01;;;;;;;;;;;;;;;5.61;100.00;100935.44;6157405;23;19913;-82
2022/11/28 04:41:37;;;;;;;;;;;;;;;5.38;100.00;100939.00;6158114;23;19916;-81
2022/11/28 04:44:12;;;;;;;;;;;;;;;5.22;100.00;100931.47;6156886;23;20338;-83
2022/11/28 04:46:43;;;;;;;;;;;;;;;5.41;100.00;100923.00;6158883;23;19912;-83
2022/11/28 04:49:09;;;;;;;;;;;;;;;5.43;100.00;100926.38;6157641;23;19923;-81
2022/11/28 04:51:49;;;;;;;;;;;;;;;5.32;100.00;100923.72;6157516;23;19919;-83
2022/11/28 04:54:21;;;;;;;;;;;;;;;5.14;100.00;100925.13;6157953;23;19913;-84
2022/11/28 04:56:56;;;;;;;;;;;;;;;5.04;100.00;100924.16;6157509;23;19919;-83
2022/11/28 04:59:23;;;;;;;;;;;;;;;5.21;100.00;100931.59;6157415;23;20036;-82
2022/11/28 05:01:49;;;;;;;;;;;;;;;5.41;100.00;100927.41;6157461;23;19995;-82
2022/11/28 05:04:16;;;;;;;;;;;;;;;5.39;100.00;100930.19;6157457;23;19959;-81
2022/11/28 05:06:47;;;;;;;;;;;;;;;5.53;100.00;100927.31;6136745;23;20269;-84
2022/11/28 05:09:13;;;;;;;;;;;;;;;5.40;100.00;100928.41;6158090;23;20007;-84
2022/11/28 05:11:39;;;;;;;;;;;;;;;5.64;100.00;100929.94;6158358;23;19909;-83
2022/11/28 05:14:05;;;;;;;;;;;;;;;5.50;100.00;100932.78;6159947;23;19908;-82
2022/11/28 05:16:30;;;;;;;;;;;;;;;5.50;100.00;100929.34;6159266;23;20343;-84
2022/11/28 05:18:56;;;;;;;;;;;;;;;5.71;100.00;100925.88;6137244;23;19913;-86
2022/11/28 05:21:21;;;;;;;;;;;;;;;5.60;100.00;100917.16;6161795;23;19991;-85
2022/11/28 05:23:47;;;;;;;;;;;;;;;5.78;100.00;100915.69;6131718;23;19966;-84
2022/11/28 05:26:13;;;;;;;;;;;;;;;5.69;100.00;100927.78;6157551;23;19937;-88
2022/11/28 05:28:41;;;;;;;;;;;;;;;5.76;100.00;100922.88;6154885;23;19987;-84
2022/11/28 05:31:07;;;;;;;;;;;;;;;5.82;100.00;100921.53;6156766;23;20347;-80
2022/11/28 05:33:32;;;;;;;;;;;;;;;5.91;100.00;100910.31;6154992;23;19912;-81
2022/11/28 05:36:02;;;;;;;;;;;;;;;5.80;100.00;100907.69;6157708;23;19983;-85
2022/11/28 05:38:27;;;;;;;;;;;;;;;5.91;100.00;100910.31;6156414;23;19912;-83
2022/11/28 05:40:52;;;;;;;;;;;;;;;5.78;100.00;100905.16;6156106;23;19943;-81
2022/11/28 05:43:18;;;;;;;;;;;;;;;5.86;100.00;100912.50;6155686;23;19913;-83
2022/11/28 05:45:44;;;;;;;;;;;;;;;5.76;100.00;100916.78;6155308;23;19913;-83
2022/11/28 05:48:10;;;;;;;;;;;;;;;5.61;100.00;100901.25;6157366;23;19920;-83
2022/11/28 05:50:38;;;;;;;;;;;;;;;5.66;100.00;100906.16;6157453;23;19917;-81
2022/11/28 05:53:03;;;;;;;;;;;;;;;5.60;100.00;100899.56;6157625;23;19913;-81
2022/11/28 05:55:28;;;;;;;;;;;;;;;5.80;100.00;100902.44;6157581;23;20013;-83
2022/11/28 05:57:55;;;;;;;;;;;;;;;5.91;100.00;100895.38;6156442;23;19913;-82
2022/11/28 06:00:20;;;;;;;;;;;;;;;5.53;100.00;100895.78;6157370;23;20276;-85
2022/11/28 06:02:45;;;;;;;;;;;;;;;5.76;100.00;100903.63;6159272;23;19923;-83
2022/11/28 06:05:11;;;;;;;;;;;;;;;5.86;100.00;100899.34;6164807;23;19947;-83
2022/11/28 06:07:38;;;;;;;;;;;;;;;5.92;100.00;100893.59;6163452;23;19935;-84
2022/11/28 06:10:06;;;;;;;;;;;;;;;5.79;100.00;100880.56;6162340;23;19912;-86
2022/11/28 06:12:31;;;;;;;;;;;;;;;5.59;100.00;100874.25;6183186;23;19913;-83
2022/11/28 06:14:57;;;;;;;;;;;;;;;5.85;100.00;100864.28;6155500;23;19959;-84
2022/11/28 06:17:22;;;;;;;;;;;;;;;5.90;100.00;100871.84;6155869;23;19920;-82
2022/11/28 06:19:47;;;;;;;;;;;;;;;5.78;100.00;100862.25;6160176;23;19920;-83
2022/11/28 06:22:13;;;;;;;;;;;;;;;5.88;100.00;100865.84;6157594;23;19912;-86
2022/11/28 06:24:38;;;;;;;;;;;;;;;6.03;100.00;100862.00;6157853;23;19912;-83
2022/11/28 06:27:03;;;;;;;;;;;;;;;6.14;100.00;100860.16;6158350;23;19909;-84
2022/11/28 06:29:29;;;;;;;;;;;;;;;6.06;100.00;100857.31;6158180;23;19952;-83
2022/11/28 06:31:55;;;;;;;;;;;;;;;6.05;100.00;100860.06;6157406;23;19913;-85
2022/11/28 06:34:31;;;;;;;;;;;;;;;5.85;100.00;100859.03;6157064;23;19908;-85
2022/11/28 06:36:59;;;;;;;;;;;;;;;5.76;100.00;100848.41;6139902;23;19920;-83
2022/11/28 06:39:25;;;;;;;;;;;;;;;5.92;100.00;100864.66;6165593;23;19955;-81
2022/11/28 06:41:50;;;;;;;;;;;;;;;5.76;100.00;100858.94;6166355;23;20006;-85
2022/11/28 06:44:16;;;;;;;;;;;;;;;5.69;100.00;100864.69;6163290;23;19913;-82
2022/11/28 06:46:42;;;;;;;;;;;;;;;5.91;100.00;100857.72;6164262;23;19988;-85
2022/11/28 06:49:10;;;;;;;;;;;;;;;5.91;100.00;100857.72;6163641;23;19920;-84
2022/11/28 06:51:35;;;;;;;;;;;;;;;5.87;100.00;100851.00;6158223;23;19939;-84
2022/11/28 06:54:00;;;;;;;;;;;;;;;5.86;100.00;100859.88;6159228;23;19913;-85
2022/11/28 06:56:26;;;;;;;;;;;;;;;5.79;100.00;100848.16;6164566;23;20284;-84
2022/11/28 06:58:55;;;;;;;;;;;;;;;5.74;100.00;100859.88;6159159;23;20316;-84
2022/11/28 07:01:21;;;;;;;;;;;;;;;5.84;100.00;100861.75;6160081;23;19983;-85
2022/11/28 07:03:47;;;;;;;;;;;;;;;5.86;100.00;100859.88;6136560;23;19920;-83
2022/11/28 07:06:13;;;;;;;;;;;;;;;5.95;100.00;100869.66;6161230;23;20252;-85
2022/11/28 07:08:39;;;;;;;;;;;;;;;6.00;100.00;100878.84;6160282;23;19924;-85
2022/11/28 07:11:07;;;;;;;;;;;;;;;5.94;100.00;100871.44;6182814;23;19912;-87
2022/11/28 07:13:33;;;;;;;;;;;;;;;5.90;100.00;100866.59;6157849;23;19987;-86
2022/11/28 07:15:58;;;;;;;;;;;;;;;5.72;100.00;100861.81;6157792;23;19923;-83
2022/11/28 07:18:24;;;;;;;;;;;;;;;5.86;100.00;100859.88;6158870;23;19960;-84
2022/11/28 07:20:49;;;;;;;;;;;;;;;5.66;100.00;100864.94;6159194;23;19916;-84
2022/11/28 07:23:14;;;;;;;;;;;;;;;5.55;100.00;100861.47;6132940;23;19916;-84
2022/11/28 07:25:40;;;;;;;;;;;;;;;5.46;100.00;100859.56;6158812;23;19960;-83
2022/11/28 07:28:05;;;;;;;;;;;;;;;5.22;100.00;100857.06;6159435;23;19936;-83
2022/11/28 07:30:31;;;;;;;;;;;;;;;5.08;100.00;100847.63;6160232;23;19912;-85
2022/11/28 07:32:57;;;;;;;;;;;;;;;5.29;100.00;100845.13;6157785;23;19933;-82
2022/11/28 07:35:23;;;;;;;;;;;;;;;5.16;100.00;100828.66;6166555;23;19905;-83
2022/11/28 07:37:48;;;;;;;;;;;;;;;5.29;100.00;100839.03;6169886;23;19912;-81
2022/11/28 07:40:14;;;;;;;;;;;;;;;5.34;100.00;100834.25;6164576;23;20209;-81
2022/11/28 07:42:39;;;;;;;;;;;;;;;5.44;100.00;100843.06;6161005;23;19913;-80
2022/11/28 07:45:05;;;;;;;;;;;;;;;5.62;100.00;100841.63;6158351;23;20002;-81
2022/11/28 07:47:31;;;;;;;;;;;;;;;5.60;100.00;100825.16;6156852;23;20334;-81
2022/11/28 07:49:56;;;;;;;;;;;;;;;5.66;100.00;100830.75;6157859;23;19955;-81
2022/11/28 07:52:24;;;;;;;;;;;;;;;5.81;100.00;100827.81;6157648;23;19987;-81
2022/11/28 07:54:50;;;;;;;;;;;;;;;5.67;100.00;100832.41;6131837;23;20347;-81
2022/11/28 07:57:15;;;;;;;;;;;;;;;5.56;100.00;100834.22;6157863;23;19917;-84
2022/11/28 07:59:40;;;;;;;;;;;;;;;5.60;100.00;100828.59;6157629;23;19909;-81
2022/11/28 08:02:06;;;;;;;;;;;;;;;5.64;100.00;100837.91;6157306;23;19944;-82
2022/11/28 08:04:35;;;;;;;;;;;;;;;5.55;100.00;100850.94;6157965;23;20292;-84
2022/11/28 08:07:00;;;;;;;;;;;;;;;5.55;100.00;100845.69;6156123;23;19919;-83
2022/11/28 08:09:26;;;;;;;;;;;;;;;5.48;100.00;100847.13;6156848;23;19912;-85
2022/11/28 08:11:51;;;;;;;;;;;;;;;5.61;100.00;100851.28;6158117;23;19909;-86
2022/11/28 08:14:16;;;;;;;;;;;;;;;5.65;100.00;100847.47;6157822;23;19912;-85
2022/11/28 08:16:43;;;;;;;;;;;;;;;5.56;100.00;100842.94;6142867;23;19916;-86
2022/11/28 08:19:09;;;;;;;;;;;;;;;5.73;100.00;100852.94;6128820;23;19920;-85
2022/11/28 08:21:35;;;;;;;;;;;;;;;5.58;100.00;100856.81;6129081;23;19913;-84
2022/11/28 08:24:01;;;;;;;;;;;;;;;5.63;100.00;100865.16;6127535;23;19931;-83
2022/11/28 08:26:27;;;;;;;;;;;;;;;5.63;100.00;100867.78;6103075;23;19949;-84
2022/11/28 08:28:53;;;;;;;;;;;;;;;5.67;100.00;100868.38;6128016;23;19912;-85
2022/11/28 08:31:23;;;;;;;;;;;;;;;5.78;100.00;100868.34;6128428;23;20404;-85
2022/11/28 08:33:49;;;;;;;;;;;;;;;5.81;100.00;100862.00;6128350;23;19927;-89
2022/11/28 08:36:15;;;;;;;;;;;;;;;5.83;100.00;100868.00;6127680;23;20212;-86
2022/11/28 08:38:42;;;;;;;;;;;;;;;5.89;100.00;100855.22;6127833;23;19935;-86
2022/11/28 08:41:13;;;;;;;;;;;;;;;6.09;100.00;100856.22;6128333;23;20333;-87
2022/11/28 08:43:38;;;;;;;;;;;;;;;5.92;100.00;100839.19;6078050;23;19913;-87
2022/11/28 08:46:05;;;;;;;;;;;;;;;5.91;100.00;100828.78;6102404;23;20048;-84
2022/11/28 08:48:31;;;;;;;;;;;;;;;6.23;100.00;100827.00;6127901;23;19983;-87
2022/11/28 08:50:56;;;;;;;;;;;;;;;6.10;100.00;100832.41;6101850;23;19935;-86
2022/11/28 08:53:22;;;;;;;;;;;;;;;6.29;100.00;100831.75;6132900;23;19913;-89
2022/11/28 08:55:47;;;;;;;;;;;;;;;6.47;100.00;100838.09;6129086;23;19913;-86
2022/11/28 08:58:13;;;;;;;;;;;;;;;6.56;100.00;100833.88;6127856;23;20293;-86
2022/11/28 09:00:39;;;;;;;;;;;;;;;6.68;100.00;100827.56;6127925;23;19929;-87
2022/11/28 09:03:04;;;;;;;;;;;;;;;6.83;100.00;100835.97;6127516;23;20218;-84
2022/11/28 09:05:30;;;;;;;;;;;;;;;6.98;100.00;100839.94;6127400;23;19940;-87
2022/11/28 09:07:55;;;;;;;;;;;;;;;6.93;100.00;100836.84;6127957;23;20294;-83
2022/11/28 09:10:21;;;;;;;;;;;;;;;6.90;100.00;100837.94;6127255;23;19913;-86
2022/11/28 09:12:46;;;;;;;;;;;;;;;6.78;100.00;100838.16;6127979;23;19920;-83
2022/11/28 09:15:12;;;;;;;;;;;;;;;6.64;100.00;100840.16;6101165;23;20007;-82
2022/11/28 09:17:38;;;;;;;;;;;;;;;6.63;100.00;100838.47;6127789;23;19913;-88
2022/11/28 09:20:05;;;;;;;;;;;;;;;6.55;100.00;100833.03;6157346;23;19912;-84
2022/11/28 09:22:31;;;;;;;;;;;;;;;6.60;100.00;100830.84;6157066;23;20341;-85
2022/11/28 09:24:56;;;;;;;;;;;;;;;6.58;100.00;100831.94;6158320;23;19913;-82
2022/11/28 09:27:22;;;;;;;;;;;;;;;6.82;100.00;100818.50;6130280;23;19912;-85
2022/11/28 09:29:47;;;;;;;;;;;;;;;6.99;100.00;100831.06;6156376;23;19947;-83
2022/11/28 09:32:13;;;;;;;;;;;;;;;6.82;100.00;100823.75;6156433;23;19913;-84
2022/11/28 09:34:38;;;;;;;;;;;;;;;6.82;100.00;100819.34;6156535;23;19939;-84
2022/11/28 09:37:03;;;;;;;;;;;;;;;6.99;100.00;100828.44;6156233;23;19940;-83
2022/11/28 09:39:29;;;;;;;;;;;;;;;6.87;100.00;100832.09;6156379;23;20296;-82
2022/11/28 09:42:13;;;;;;;;;;;;;;;6.99;100.00;100831.06;6156977;23;19920;-84
2022/11/28 09:44:38;;;;;;;;;;;;;;;6.99;100.00;100836.34;6156784;23;19913;-81
2022/11/28 09:47:07;;;;;;;;;;;;;;;7.10;100.00;100830.97;6157279;23;20340;-86
2022/11/28 09:49:36;;;;;;;;;;;;;;;7.07;100.00;100832.06;6157437;23;20328;-86
2022/11/28 09:52:10;;;;;;;;;;;;;;;7.06;100.00;100837.50;6130991;23;19978;-81
2022/11/28 09:54:36;;;;;;;;;;;;;;;6.98;100.00;100829.38;6156425;23;19912;-85
2022/11/28 09:57:02;;;;;;;;;;;;;;;7.00;100.00;100830.09;6156449;23;19940;-84
2022/11/28 09:59:28;;;;;;;;;;;;;;;6.98;100.00;100824.97;6156657;23;19969;-81
2022/11/28 10:02:02;;;;;;;;;;;;;;;7.03;100.00;100832.44;6153447;23;19913;-83
2022/11/28 10:04:44;;;;;;;;;;;;;;;6.88;100.00;100831.97;6154682;23;20446;-83
2022/11/28 10:07:24;;;;;;;;;;;;;;;6.95;100.00;100834.94;6152926;23;19912;-83
2022/11/28 10:10:22;;;;;;;;;;;;;;;6.90;100.00;100826.56;6155301;23;19958;-84
2022/11/28 10:13:14;;;;;;;;;;;;;;;6.83;100.00;100830.72;6090372;23;19956;-85
2022/11/28 10:15:58;;;;;;;;;;;;;;;6.86;100.00;100830.44;6149870;23;19924;-82
2022/11/28 10:18:34;;;;;;;;;;;;;;;6.87;100.00;100824.19;6156213;23;19935;-83
2022/11/28 10:21:18;;;;;;;;;;;;;;;6.81;100.00;100817.66;6156383;23;20224;-83
2022/11/28 10:23:44;;;;;;;;;;;;;;;6.84;100.00;100816.56;6156279;23;20358;-83
2022/11/28 10:26:25;;;;;;;;;;;;;;;6.91;100.00;100828.25;6156176;23;19915;-84
2022/11/28 10:28:52;;;;;;;;;;;;;;;6.80;100.00;100809.88;6156172;23;19967;-84
2022/11/28 10:31:17;;;;;;;;;;;;;;;6.88;100.00;100810.06;6155972;23;19912;-85
2022/11/28 10:33:46;;;;;;;;;;;;;;;6.82;100.00;100802.69;6156266;23;19919;-84
2022/11/28 10:36:19;;;;;;;;;;;;;;;6.73;100.00;100802.50;6156430;23;19913;-83
2022/11/28 10:38:44;;;;;;;;;;;;;;;6.87;100.00;100808.38;6156573;23;20331;-82
2022/11/28 10:41:16;;;;;;;;;;;;;;;7.07;100.00;100802.25;6156999;23;19912;-84
2022/11/28 10:43:56;;;;;;;;;;;;;;;6.80;100.00;100805.44;6157351;23;19913;-83
2022/11/28 10:46:40;;;;;;;;;;;;;;;6.65;100.00;100806.75;6156929;23;19917;-81
2022/11/28 10:49:06;;;;;;;;;;;;;;;6.67;100.00;100800.38;6156433;23;19916;-82
2022/11/28 10:51:44;;;;;;;;;;;;;;;6.68;100.00;100791.53;6156541;23;19916;-84
2022/11/28 10:54:21;;;;;;;;;;;;;;;6.70;100.00;100792.22;6156156;23;19912;-84
2022/11/28 10:57:06;;;;;;;;;;;;;;;6.63;100.00;100780.53;6155816;23;19963;-83
2022/11/28 10:59:50;;;;;;;;;;;;;;;6.68;100.00;100778.38;6155234;23;20228;-83
2022/11/28 11:02:20;;;;;;;;;;;;;;;6.74;100.00;100769.94;6156241;23;19917;-82
2022/11/28 11:04:46;;;;;;;;;;;;;;;6.75;100.00;100768.97;6130296;23;20309;-85
2022/11/28 11:07:14;;;;;;;;;;;;;;;6.87;100.00;100768.88;6156162;23;19919;-83
2022/11/28 11:09:41;;;;;;;;;;;;;;;6.88;100.00;100760.00;6155918;23;19920;-83
2022/11/28 11:12:13;;;;;;;;;;;;;;;6.83;100.00;100760.41;6156705;23;19912;-85
2022/11/28 11:14:39;;;;;;;;;;;;;;;6.88;100.00;100760.00;6179513;23;19912;-82
2022/11/28 11:17:04;;;;;;;;;;;;;;;6.93;100.00;100758.63;6157257;23;19923;-83
2022/11/28 11:19:33;;;;;;;;;;;;;;;6.87;100.00;100760.97;6156925;23;19959;-79
2022/11/28 11:21:58;;;;;;;;;;;;;;;6.93;100.00;100758.63;6143661;23;19952;-82
2022/11/28 11:24:23;;;;;;;;;;;;;;;6.93;100.00;100752.53;6171550;23;19923;-83
2022/11/28 11:26:49;;;;;;;;;;;;;;;6.83;100.00;100757.75;6173114;23;19919;-83
2022/11/28 11:29:40;;;;;;;;;;;;;;;6.70;100.00;100742.19;6169584;23;19960;-83
2022/11/28 11:32:15;;;;;;;;;;;;;;;6.91;100.00;100750.03;6164467;23;20272;-83
2022/11/28 11:34:46;;;;;;;;;;;;;;;6.84;100.00;100743.63;6165289;23;19977;-83
2022/11/28 11:37:27;;;;;;;;;;;;;;;6.85;100.00;100747.94;6158667;23;19913;-84
2022/11/28 11:39:52;;;;;;;;;;;;;;;6.91;100.00;100743.94;6158910;23;20031;-83
2022/11/28 11:42:24;;;;;;;;;;;;;;;6.83;100.00;100736.69;6158450;23;19908;-86
2022/11/28 11:44:49;;;;;;;;;;;;;;;6.74;100.00;100733.06;6158070;23;19919;-84
2022/11/28 11:47:15;;;;;;;;;;;;;;;6.73;100.00;100714.75;6158449;23;19980;-84
2022/11/28 11:49:46;;;;;;;;;;;;;;;6.78;100.00;100712.56;6157366;23;19948;-82
2022/11/28 11:52:11;;;;;;;;;;;;;;;6.74;100.00;100705.88;6157531;23;19916;-83
2022/11/28 11:54:56;;;;;;;;;;;;;;;6.75;100.00;100704.94;6157614;23;19940;-83
2022/11/28 11:57:22;;;;;;;;;;;;;;;6.79;100.00;100716.88;6157971;23;19913;-87
2022/11/28 11:59:52;;;;;;;;;;;;;;;6.79;100.00;100713.41;6157709;23;19909;-83
2022/11/28 12:02:29;;;;;;;;;;;;;;;6.84;100.00;100711.19;6158430;23;19971;-84
2022/11/28 12:04:58;;;;;;;;;;;;;;;6.84;100.00;100708.53;6157354;23;20299;-85
2022/11/28 12:07:32;;;;;;;;;;;;;;;6.79;100.00;100698.44;6157645;23;19913;-85
2022/11/28 12:09:58;;;;;;;;;;;;;;;6.79;100.00;100697.59;6157203;23;19913;-83
2022/11/28 12:12:25;;;;;;;;;;;;;;;6.72;100.00;100687.59;6158309;23;19920;-89
2022/11/28 12:14:51;;;;;;;;;;;;;;;6.80;100.00;100689.53;6158403;23;19908;-86
2022/11/28 12:17:25;;;;;;;;;;;;;;;6.84;100.00;100690.94;6159020;23;19939;-89
2022/11/28 12:20:00;;;;;;;;;;;;;;;6.75;100.00;100678.59;6165053;23;19912;-86
2022/11/28 12:22:25;;;;;;;;;;;;;;;6.75;100.00;100687.31;6137119;23;19919;-88
2022/11/28 12:25:06;;;;;;;;;;;;;;;7.01;100.00;100681.56;6137389;23;19909;-79
2022/11/28 12:27:49;;;;;;;;;;;;;;;6.93;100.00;100673.50;6169207;23;19908;-86
2022/11/28 12:30:23;;;;;;;;;;;;;;;6.96;100.00;100678.50;6165999;23;19950;-86
2022/11/28 12:32:57;;;;;;;;;;;;;;;7.01;100.00;100681.56;6171548;23;19919;-83
2022/11/28 12:35:52;;;;;;;;;;;;;;;6.96;100.00;100673.25;6144306;23;19908;-84
2022/11/28 12:38:26;;;;;;;;;;;;;;;6.90;100.00;100679.03;6143457;23;20039;-87
2022/11/28 12:41:10;;;;;;;;;;;;;;;7.09;100.00;100673.81;6165911;23;19939;-88
2022/11/28 12:43:54;;;;;;;;;;;;;;;7.19;100.00;100664.13;6167683;23;19981;-84
2022/11/28 12:46:38;;;;;;;;;;;;;;;7.32;100.00;100648.88;6163836;23;20279;-86